Time;durP1;ratioP1;P1;durP2;ratioP2;P2;SDS_P1;SDS_P2;PMS_P1;PMS_P2;Temp;Humidity;BMP_temperature;BMP_pressure;BME280_temperature;BME280_humidity;BME280_pressure;Samples;Min_cycle;Max_cycle;Signal;HPM_P1;HPM_P2
2023/03/16 00:03:57;;;;;;;0.08;0.00;;;-0.20;68.40;;;;;;20914461;28;20033;-50
2023/03/16 00:13:58;;;;;;;0.40;0.00;;;-0.30;69.30;;;;;;20913872;28;20533;-45
2023/03/16 00:24:02;;;;;;;2.15;0.00;;;-0.40;69.90;;;;;;20914305;28;20466;-46
2023/03/16 00:34:04;;;;;;;0.13;0.00;;;-0.50;70.60;;;;;;20912598;28;20033;-47
2023/03/16 00:44:08;;;;;;;0.00;0.00;;;-0.50;70.40;;;;;;20911456;28;20025;-47
2023/03/16 00:54:09;;;;;;;0.32;0.00;;;-0.50;72.80;;;;;;20911158;28;20049;-46
2023/03/16 01:04:12;;;;;;;0.15;0.00;;;-0.80;73.50;;;;;;20910373;28;20087;-48
2023/03/16 01:14:14;;;;;;;0.60;0.08;;;-1.20;77.60;;;;;;20908207;28;20557;-50
2023/03/16 01:24:16;;;;;;;0.10;0.08;;;-1.10;76.30;;;;;;20908256;28;20040;-46
2023/03/16 01:34:18;;;;;;;0.25;0.20;;;-1.20;76.30;;;;;;20907887;28;20033;-47
2023/03/16 01:44:34;;;;;;;0.95;0.00;;;-1.60;80.30;;;;;;20905417;28;20487;-49
2023/03/16 01:54:45;;;;;;;0.63;0.00;;;-1.60;80.40;;;;;;20904904;28;20071;-45
2023/03/16 02:05:06;;;;;;;0.30;0.10;;;-1.80;82.40;;;;;;20905688;28;20033;-46
2023/03/16 02:15:12;;;;;;;0.20;0.00;;;-1.90;83.00;;;;;;20904445;28;20114;-46
2023/03/16 02:25:17;;;;;;;0.10;0.08;;;-2.20;86.90;;;;;;20902054;28;20040;-46
2023/03/16 02:35:20;;;;;;;0.28;0.10;;;-2.40;86.20;;;;;;20902795;28;20036;-47
2023/03/16 02:45:26;;;;;;;0.40;0.05;;;-2.60;86.70;;;;;;20929976;28;20041;-45
2023/03/16 02:55:28;;;;;;;0.20;0.00;;;-2.60;90.40;;;;;;20940410;28;20041;-44
2023/03/16 03:05:30;;;;;;;0.22;0.00;;;-2.60;89.20;;;;;;20898898;28;20438;-45
2023/03/16 03:15:33;;;;;;;0.63;0.00;;;-2.70;89.20;;;;;;20899910;28;20068;-45
2023/03/16 03:25:40;;;;;;;0.25;0.10;;;-2.70;90.60;;;;;;20906433;28;20040;-46
2023/03/16 03:35:42;;;;;;;0.25;0.10;;;-2.60;89.50;;;;;;20910130;28;20471;-45
2023/03/16 03:45:45;;;;;;;0.10;0.00;;;-2.50;86.40;;;;;;20913382;28;20449;-44
2023/03/16 03:55:48;;;;;;;0.60;0.10;;;-2.40;86.40;;;;;;20912095;28;20079;-48
2023/03/16 04:05:51;;;;;;;0.45;0.00;;;-2.20;85.20;;;;;;20947890;28;20482;-44
2023/03/16 04:15:57;;;;;;;0.50;0.00;;;-2.10;86.00;;;;;;20912083;28;20138;-45
2023/03/16 04:26:02;;;;;;;0.40;0.00;;;-2.10;85.60;;;;;;20909631;28;20475;-46
2023/03/16 04:36:06;;;;;;;0.32;0.13;;;-2.20;87.50;;;;;;20909170;28;20033;-47
2023/03/16 04:46:11;;;;;;;0.73;0.10;;;-2.30;86.00;;;;;;20942902;28;20041;-45
2023/03/16 04:56:18;;;;;;;0.13;0.05;;;-2.40;90.30;;;;;;20941042;28;20036;-45
2023/03/16 05:06:22;;;;;;;0.20;0.10;;;-2.60;91.00;;;;;;20906894;28;20041;-46
2023/03/16 05:16:24;;;;;;;1.15;0.10;;;-2.80;91.70;;;;;;20909414;28;20445;-45
2023/03/16 05:26:26;;;;;;;0.10;0.03;;;-2.90;91.20;;;;;;20907159;28;20036;-44
2023/03/16 05:36:28;;;;;;;0.70;0.30;;;-2.90;92.50;;;;;;20906187;28;20033;-48
2023/03/16 05:46:36;;;;;;;1.75;0.30;;;-2.90;92.10;;;;;;20905700;28;20343;-45
2023/03/16 05:56:40;;;;;;;0.28;0.10;;;-2.80;93.00;;;;;;20905312;28;20089;-45
2023/03/16 06:06:42;;;;;;;0.60;0.10;;;-2.70;94.30;;;;;;20903961;28;20045;-49
2023/03/16 06:16:51;;;;;;;2.47;0.20;;;-2.60;95.00;;;;;;20903633;28;20122;-45
2023/03/16 06:26:53;;;;;;;0.55;0.20;;;-2.30;96.20;;;;;;20903183;28;20041;-45
2023/03/16 06:36:58;;;;;;;1.38;0.30;;;-2.10;97.40;;;;;;20902861;28;20029;-46
2023/03/16 06:47:00;;;;;;;0.55;0.20;;;-1.70;97.90;;;;;;20902076;28;20487;-46
2023/03/16 06:57:03;;;;;;;0.28;0.13;;;-1.20;97.30;;;;;;20903028;28;20110;-45
2023/03/16 07:07:04;;;;;;;0.30;0.20;;;-0.50;97.10;;;;;;20906808;28;20110;-45
2023/03/16 07:17:06;;;;;;;0.45;0.20;;;-0.20;96.50;;;;;;20918641;28;20029;-47
2023/03/16 07:27:08;;;;;;;0.63;0.20;;;-0.20;96.60;;;;;;20911593;28;20029;-44
2023/03/16 07:37:11;;;;;;;0.65;0.40;;;-0.10;97.60;;;;;;20915605;28;20095;-46
2023/03/16 07:47:13;;;;;;;2.30;0.70;;;0.40;98.10;;;;;;20915178;28;20147;-47
2023/03/16 07:57:16;;;;;;;3.35;0.68;;;1.80;99.90;;;;;;20914594;28;20036;-46
2023/03/16 08:07:19;;;;;;;1.27;0.50;;;3.40;98.40;;;;;;20913086;28;20048;-49
2023/03/16 08:17:33;;;;;;;1.67;0.60;;;4.70;96.40;;;;;;20912664;28;20037;-46
2023/03/16 08:27:37;;;;;;;1.38;0.75;;;5.70;94.80;;;;;;20911845;28;20047;-50
2023/03/16 08:37:42;;;;;;;2.20;0.90;;;5.30;95.70;;;;;;20911131;28;20041;-48
2023/03/16 08:47:43;;;;;;;1.80;0.80;;;5.10;96.20;;;;;;20911921;28;20177;-47
2023/03/16 08:57:47;;;;;;;2.00;1.02;;;5.70;96.80;;;;;;20909779;28;20036;-50
2023/03/16 09:07:50;;;;;;;2.03;1.00;;;6.70;95.70;;;;;;20909712;28;20041;-46
2023/03/16 09:17:53;;;;;;;1.27;1.08;;;6.60;95.40;;;;;;20909665;28;20037;-46
2023/03/16 09:27:54;;;;;;;1.40;1.00;;;6.30;96.00;;;;;;20908406;28;20102;-50
2023/03/16 09:37:56;;;;;;;1.67;0.90;;;6.10;96.60;;;;;;20907580;28;20033;-46
2023/03/16 09:48:02;;;;;;;3.45;1.10;;;5.80;97.00;;;;;;20907261;28;20044;-48
2023/03/16 09:58:19;;;;;;;1.65;1.08;;;5.30;98.10;;;;;;20906473;28;20040;-49
2023/03/16 10:08:24;;;;;;;2.92;1.00;;;4.80;98.60;;;;;;20905088;28;20600;-48
2023/03/16 10:18:34;;;;;;;1.83;0.85;;;4.60;99.70;;;;;;20905194;28;20025;-48
2023/03/16 10:28:36;;;;;;;2.00;1.03;;;5.00;99.60;;;;;;20905229;28;20036;-50
2023/03/16 10:38:45;;;;;;;1.58;0.90;;;5.60;97.50;;;;;;20903389;28;20041;-52
2023/03/16 10:48:58;;;;;;;2.33;0.93;;;6.10;96.70;;;;;;20905059;28;20037;-47
2023/03/16 10:59:01;;;;;;;1.50;0.82;;;6.50;95.50;;;;;;20902120;28;20029;-46
2023/03/16 11:09:12;;;;;;;2.58;1.05;;;6.50;94.60;;;;;;20902196;28;20439;-48
2023/03/16 11:19:20;;;;;;;3.37;0.93;;;7.10;92.40;;;;;;20902557;28;20540;-48
2023/03/16 11:29:34;;;;;;;1.02;0.70;;;7.80;95.60;;;;;;20902021;28;20037;-51
2023/03/16 11:40:13;;;;;;;2.33;1.17;;;8.90;90.80;;;;;;20901536;28;20041;-47
2023/03/16 11:50:45;;;;;;;1.20;0.82;;;9.30;89.80;;;;;;20819919;28;20080;-46
2023/03/16 12:00:58;;;;;;;1.25;0.88;;;9.60;90.00;;;;;;20853392;28;20063;-51
2023/03/16 12:11:08;;;;;;;1.77;0.90;;;10.10;82.50;;;;;;20914415;28;20049;-46
2023/03/16 12:21:18;;;;;;;3.35;1.00;;;10.20;88.30;;;;;;20913871;28;20471;-48
2023/03/16 12:31:42;;;;;;;3.83;1.30;;;9.80;89.40;;;;;;20913273;28;20032;-47
2023/03/16 12:42:08;;;;;;;3.00;1.20;;;9.50;87.40;;;;;;20912091;28;20067;-47
2023/03/16 12:52:13;;;;;;;4.47;1.42;;;9.50;86.50;;;;;;20911609;28;20032;-47
2023/03/16 13:02:23;;;;;;;1.98;1.33;;;10.00;89.30;;;;;;20910351;28;20044;-47
2023/03/16 13:12:25;;;;;;;;;;;10.40;88.60;;;;;;20910232;28;20040;-52
2023/03/16 13:22:30;;;;;;;3.20;1.50;;;10.20;85.10;;;;;;20909253;28;19917;-47
2023/03/16 13:32:33;;;;;;;2.53;1.77;;;10.00;84.60;;;;;;20908303;28;20091;-51
2023/03/16 13:42:37;;;;;;;3.25;1.77;;;9.70;84.10;;;;;;20861447;28;20406;-52
2023/03/16 13:52:40;;;;;;;5.15;2.10;;;9.10;87.10;;;;;;20907652;28;20044;-45
2023/03/16 14:02:43;;;;;;;3.25;1.73;;;8.80;86.30;;;;;;20906228;28;20037;-56
2023/03/16 14:13:05;;;;;;;3.22;1.80;;;7.80;89.10;;;;;;20903718;28;20040;-56
2023/03/16 14:23:21;;;;;;;2.78;1.88;;;7.60;89.30;;;;;;20904136;28;20419;-56
2023/03/16 14:33:28;;;;;;;2.85;2.00;;;7.30;89.70;;;;;;20903305;28;20086;-48
2023/03/16 14:43:35;;;;;;;3.67;1.90;;;7.10;90.10;;;;;;20903541;28;20024;-49
2023/03/16 14:53:37;;;;;;;3.80;2.28;;;6.70;90.00;;;;;;20903402;28;20033;-51
2023/03/16 15:03:42;;;;;;;4.03;2.38;;;6.30;90.80;;;;;;20902352;28;20033;-49
2023/03/16 15:23:46;;;;;;;5.95;2.80;;;5.50;92.00;;;;;;20902620;28;20545;-48
2023/03/16 15:33:47;;;;;;;5.97;2.80;;;5.30;92.70;;;;;;20916464;28;20471;-50
2023/03/16 15:43:51;;;;;;;3.88;2.85;;;5.30;92.50;;;;;;20916571;28;20028;-47
2023/03/16 15:54:12;;;;;;;4.75;2.65;;;4.80;93.80;;;;;;20916114;28;20045;-48
2023/03/16 16:04:16;;;;;;;;;;;4.50;94.60;;;;;;20915863;28;20029;-47
2023/03/16 16:14:24;;;;;;;5.57;3.17;;;3.80;94.60;;;;;;20915127;28;19916;-47
2023/03/16 16:24:27;;;;;;;3.95;2.88;;;3.30;95.60;;;;;;20913542;28;20075;-46
2023/03/16 16:34:29;;;;;;;5.15;3.20;;;2.70;96.60;;;;;;20912231;28;20106;-50
2023/03/16 16:44:30;;;;;;;4.72;3.33;;;2.30;97.90;;;;;;20908758;28;20548;-45
2023/03/16 16:54:34;;;;;;;5.25;3.45;;;2.00;98.90;;;;;;20901167;28;20087;-49
2023/03/16 17:04:37;;;;;;;6.15;3.80;;;1.70;99.60;;;;;;20910703;28;20040;-48
2023/03/16 17:14:38;;;;;;;6.25;4.00;;;1.40;99.90;;;;;;20992776;28;20048;-47
2023/03/16 17:24:41;;;;;;;6.70;3.72;;;0.90;99.90;;;;;;20984047;28;20055;-48
2023/03/16 17:34:42;;;;;;;6.65;3.97;;;0.50;99.90;;;;;;20990555;28;20094;-47
2023/03/16 17:44:47;;;;;;;7.43;3.70;;;0.20;99.90;;;;;;20989708;28;20032;-46
2023/03/16 17:54:50;;;;;;;8.07;4.20;;;-0.10;99.90;;;;;;20989113;28;20427;-48
2023/03/16 18:04:52;;;;;;;8.98;3.83;;;-0.10;99.90;;;;;;20987261;28;20056;-49
2023/03/16 18:14:57;;;;;;;6.43;4.32;;;-0.20;99.90;;;;;;20988149;28;20044;-50
2023/03/16 18:25:00;;;;;;;7.75;4.13;;;-0.30;99.90;;;;;;20986840;28;20082;-46
2023/03/16 18:35:02;;;;;;;9.00;4.78;;;-0.30;99.90;;;;;;20987633;28;20579;-47
2023/03/16 18:45:04;;;;;;;7.65;4.55;;;-0.50;99.90;;;;;;20987027;28;20028;-50
2023/03/16 18:55:18;;;;;;;8.98;5.15;;;-0.60;99.90;;;;;;20970327;28;20032;-49
2023/03/16 19:05:34;;;;;;;8.00;4.97;;;-0.70;99.90;;;;;;20977138;28;20032;-45
2023/03/16 19:15:38;;;;;;;9.95;5.45;;;-0.80;99.90;;;;;;21001217;28;20048;-49
2023/03/16 19:25:41;;;;;;;7.47;5.22;;;-0.80;99.90;;;;;;21001371;28;20020;-47
2023/03/16 19:35:42;;;;;;;8.75;5.28;;;-0.80;99.90;;;;;;21000366;28;20040;-46
2023/03/16 19:45:45;;;;;;;7.63;4.78;;;-0.90;99.90;;;;;;20999755;28;20032;-49
2023/03/16 19:55:49;;;;;;;9.68;5.15;;;-1.00;99.90;;;;;;20998581;28;20033;-50
2023/03/16 20:05:51;;;;;;;9.85;5.43;;;-1.00;99.90;;;;;;20998889;28;20036;-48
2023/03/16 20:15:52;;;;;;;11.23;5.35;;;-1.10;99.90;;;;;;20996981;28;20110;-48
2023/03/16 20:25:57;;;;;;;9.73;5.65;;;-1.10;99.90;;;;;;20996070;28;20067;-48
2023/03/16 20:35:59;;;;;;;8.90;5.07;;;-1.20;99.90;;;;;;20979084;28;20074;-47
2023/03/16 20:46:02;;;;;;;9.50;5.45;;;-1.30;99.90;;;;;;20994679;28;20041;-46
2023/03/16 20:56:05;;;;;;;8.43;5.40;;;-1.40;99.90;;;;;;20994102;28;20028;-47
2023/03/16 21:06:21;;;;;;;12.20;6.30;;;-1.50;99.90;;;;;;20993868;28;20110;-45
2023/03/16 21:16:24;;;;;;;11.73;6.15;;;-1.60;99.90;;;;;;20992333;28;20074;-48
2023/03/16 21:26:27;;;;;;;11.82;5.97;;;-1.70;99.90;;;;;;20990796;28;20044;-49
2023/03/16 21:36:29;;;;;;;12.98;6.25;;;-1.60;99.90;;;;;;20991058;28;20032;-45
2023/03/16 21:46:31;;;;;;;10.80;5.78;;;-1.50;99.90;;;;;;20989851;28;20075;-45
2023/03/16 21:56:33;;;;;;;10.90;6.13;;;-1.40;99.90;;;;;;20989331;28;20037;-48
2023/03/16 22:06:35;;;;;;;14.38;5.85;;;-1.40;99.90;;;;;;20988556;28;20040;-48
2023/03/16 22:16:38;;;;;;;10.73;5.63;;;-1.40;99.90;;;;;;20987932;28;20174;-46
2023/03/16 22:26:40;;;;;;;9.38;5.70;;;-1.30;99.90;;;;;;20987368;28;20024;-47
2023/03/16 22:36:42;;;;;;;8.73;5.57;;;-1.20;99.90;;;;;;20969507;28;20044;-50
2023/03/16 22:46:44;;;;;;;11.45;6.22;;;-1.30;99.90;;;;;;20986472;28;20033;-45
2023/03/16 22:56:46;;;;;;;11.15;5.80;;;-1.10;99.90;;;;;;20986285;28;20029;-52
2023/03/16 23:06:52;;;;;;;10.32;5.70;;;-1.20;99.90;;;;;;20967402;28;20044;-46
2023/03/16 23:16:55;;;;;;;10.63;6.18;;;-1.30;99.90;;;;;;20985230;28;20037;-48
2023/03/16 23:26:57;;;;;;;11.45;7.05;;;-1.30;99.90;;;;;;20984514;28;20094;-47
2023/03/16 23:36:58;;;;;;;11.32;6.65;;;-1.30;99.90;;;;;;20984754;28;20414;-46
2023/03/16 23:47:00;;;;;;;11.73;6.88;;;-1.40;99.90;;;;;;20985910;28;20474;-50
2023/03/16 23:57:01;;;;;;;11.90;6.95;;;-1.40;99.90;;;;;;20998737;28;20090;-49
